createdAt,value
2017-10-25T00:01:38.425Z,78.40
2017-10-25T00:04:05.929Z,78.40
2017-10-25T00:06:33.424Z,78.30
2017-10-25T00:09:00.913Z,78.30
2017-10-25T00:11:28.426Z,78.50
2017-10-25T00:13:55.945Z,78.60
2017-10-25T00:16:23.442Z,78.40
2017-10-25T00:18:50.942Z,78.40
2017-10-25T00:21:22.475Z,78.60
2017-10-25T00:23:49.954Z,78.60
2017-10-25T00:26:18.216Z,78.70
2017-10-25T00:28:46.468Z,78.60
2017-10-25T00:31:14.001Z,78.60
2017-10-25T00:33:41.492Z,78.70
2017-10-25T00:36:08.985Z,79.20
2017-10-25T00:38:37.234Z,80.40
2017-10-25T00:41:04.720Z,80.40
2017-10-25T00:43:32.206Z,80.70
2017-10-25T00:45:59.756Z,81.00
2017-10-25T00:48:27.241Z,80.80
2017-10-25T00:50:54.757Z,81.20
2017-10-25T00:53:22.245Z,81.30
2017-10-25T00:55:49.750Z,81.20
2017-10-25T00:58:18.010Z,81.90
2017-10-25T01:00:45.506Z,81.80
2017-10-25T01:03:12.996Z,82.00
2017-10-25T01:05:40.483Z,82.50
2017-10-25T01:08:07.958Z,82.20
2017-10-25T01:10:36.222Z,82.70
2017-10-25T01:13:03.710Z,82.70
2017-10-25T01:15:31.235Z,82.80
2017-10-25T01:17:58.734Z,83.20
2017-10-25T01:20:26.238Z,83.40
2017-10-25T01:22:54.744Z,83.60
2017-10-25T01:25:23.008Z,83.90
2017-10-25T01:27:50.501Z,83.90
2017-10-25T01:30:18.010Z,84.20
2017-10-25T01:32:45.502Z,84.30
2017-10-25T01:35:13.766Z,84.70
2017-10-25T01:37:41.257Z,84.70
2017-10-25T01:40:08.753Z,84.70
2017-10-25T01:42:36.241Z,84.90
2017-10-25T01:45:04.492Z,85.50
2017-10-25T01:47:31.994Z,85.50
2017-10-25T01:49:59.482Z,85.60
2017-10-25T01:52:26.985Z,85.50
2017-10-25T01:54:54.469Z,85.50
2017-10-25T01:57:21.986Z,85.70
2017-10-25T01:59:49.484Z,85.60
2017-10-25T02:02:16.993Z,85.90
2017-10-25T02:04:44.486Z,85.70
2017-10-25T02:07:12.794Z,85.70
2017-10-25T02:09:40.288Z,85.70
2017-10-25T02:12:07.840Z,85.90
2017-10-25T02:14:35.338Z,86.00
2017-10-25T02:17:03.599Z,86.60
2017-10-25T02:19:31.087Z,86.50
2017-10-25T02:21:58.590Z,86.90
2017-10-25T02:24:26.087Z,87.30
2017-10-25T02:26:54.344Z,87.70
2017-10-25T02:29:21.830Z,87.60
2017-10-25T02:31:50.098Z,87.90
2017-10-25T02:34:18.344Z,88.10
2017-10-25T02:36:45.848Z,88.00
2017-10-25T02:39:13.334Z,88.20
2017-10-25T02:41:40.838Z,88.20
2017-10-25T02:44:09.092Z,88.30
2017-10-25T02:46:36.600Z,88.30
2017-10-25T02:49:04.078Z,88.40
2017-10-25T02:51:31.583Z,88.50
2017-10-25T02:53:59.233Z,88.50
2017-10-25T02:56:26.729Z,88.50
2017-10-25T02:58:54.214Z,88.40
2017-10-25T03:01:21.718Z,88.50
2017-10-25T03:03:49.970Z,88.90
2017-10-25T03:06:17.462Z,88.60
2017-10-25T03:08:45.717Z,88.80
2017-10-25T03:11:13.213Z,88.80
2017-10-25T03:13:40.765Z,88.70
2017-10-25T03:16:08.269Z,88.80
2017-10-25T03:18:35.766Z,88.90
2017-10-25T03:21:04.020Z,89.00
2017-10-25T03:23:31.518Z,89.00
2017-10-25T03:25:59.017Z,89.00
2017-10-25T03:28:26.501Z,88.90
2017-10-25T03:30:53.999Z,88.70
2017-10-25T03:33:21.488Z,88.90
2017-10-25T03:35:51.768Z,88.90
2017-10-25T03:38:20.055Z,89.00
2017-10-25T03:40:47.549Z,88.90
2017-10-25T03:43:15.036Z,89.10
2017-10-25T03:45:42.539Z,89.00
2017-10-25T03:48:10.034Z,89.90
2017-10-25T03:50:37.529Z,89.10
2017-10-25T03:53:05.789Z,89.00
2017-10-25T03:55:34.052Z,89.00
2017-10-25T03:58:01.536Z,89.10
2017-10-25T04:00:29.811Z,89.10
2017-10-25T04:02:58.073Z,89.30
2017-10-25T04:05:25.574Z,89.30
2017-10-25T04:07:53.065Z,89.70
2017-10-25T04:10:21.477Z,89.10
2017-10-25T04:12:49.739Z,89.20
2017-10-25T04:15:17.250Z,89.10
2017-10-25T04:17:44.736Z,89.10
2017-10-25T04:20:12.251Z,89.20
2017-10-25T04:22:39.745Z,89.00
2017-10-25T04:25:07.253Z,88.90
2017-10-25T04:27:35.500Z,88.80
2017-10-25T04:30:03.005Z,88.80
2017-10-25T04:32:30.501Z,88.80
2017-10-25T04:34:57.998Z,88.80
2017-10-25T04:37:26.256Z,88.80
2017-10-25T04:39:53.754Z,88.80
2017-10-25T04:42:21.252Z,88.60
2017-10-25T04:44:48.736Z,88.80
2017-10-25T04:47:17.029Z,88.70
2017-10-25T04:49:45.278Z,88.70
2017-10-25T04:52:12.780Z,88.70
2017-10-25T04:54:40.268Z,88.60
2017-10-25T04:57:07.782Z,88.80
2017-10-25T04:59:59.693Z,88.80
2017-10-25T05:02:27.967Z,88.90
2017-10-25T05:04:56.224Z,89.00
2017-10-25T05:07:23.712Z,89.00
2017-10-25T05:09:51.971Z,88.90
2017-10-25T05:12:20.265Z,88.90
2017-10-25T05:14:48.549Z,89.00
2017-10-25T05:17:16.045Z,88.90
2017-10-25T05:19:43.538Z,88.90
2017-10-25T05:22:11.058Z,89.00
2017-10-25T05:24:38.540Z,89.70
2017-10-25T05:27:06.051Z,89.40
2017-10-25T05:29:33.543Z,89.60
2017-10-25T05:32:01.050Z,89.70
2017-10-25T05:34:29.305Z,90.00
2017-10-25T05:36:56.801Z,90.00
2017-10-25T05:39:24.293Z,90.00
2017-10-25T05:41:51.788Z,90.10
2017-10-25T05:44:20.037Z,90.20
2017-10-25T05:46:47.542Z,90.20
2017-10-25T05:49:15.030Z,90.20
2017-10-25T05:51:42.593Z,90.30
2017-10-25T05:54:10.078Z,90.30
2017-10-25T05:56:37.571Z,90.30
2017-10-25T05:59:05.062Z,90.40
2017-10-25T06:01:32.698Z,90.40
2017-10-25T06:04:00.188Z,90.40
2017-10-25T06:06:27.715Z,90.40
2017-10-25T06:08:55.205Z,90.30
2017-10-25T06:11:22.701Z,90.40
2017-10-25T06:13:50.957Z,90.40
2017-10-25T06:16:18.464Z,90.40
2017-10-25T06:18:45.959Z,90.40
2017-10-25T06:21:13.473Z,90.40
2017-10-25T06:23:40.976Z,90.30
2017-10-25T06:26:08.478Z,90.30
2017-10-25T06:28:35.978Z,90.30
2017-10-25T06:31:03.505Z,90.00
2017-10-25T06:33:31.041Z,90.00
2017-10-25T06:35:59.311Z,89.60
2017-10-25T06:38:27.583Z,89.40
2017-10-25T06:40:55.085Z,89.40
2017-10-25T06:43:22.579Z,90.00
2017-10-25T06:45:50.080Z,89.30
2017-10-25T06:48:17.576Z,89.10
2017-10-25T06:50:45.076Z,89.30
2017-10-25T06:53:13.345Z,89.00
2017-10-25T06:55:40.849Z,88.90
2017-10-25T06:58:08.355Z,88.80
2017-10-25T07:00:35.858Z,88.80
2017-10-25T07:03:03.338Z,88.80
2017-10-25T07:05:30.819Z,89.00
2017-10-25T07:07:58.308Z,89.20
2017-10-25T07:10:26.560Z,89.10
2017-10-25T07:12:54.050Z,89.00
2017-10-25T07:15:22.429Z,89.20
2017-10-25T07:17:50.700Z,88.80
2017-10-25T07:20:18.955Z,88.90
2017-10-25T07:22:47.236Z,89.00
2017-10-25T07:25:14.759Z,88.90
2017-10-25T07:27:42.299Z,88.90
2017-10-25T07:30:09.900Z,88.90
2017-10-25T07:32:37.514Z,88.80
2017-10-25T07:35:04.993Z,88.70
2017-10-25T07:37:32.513Z,88.50
2017-10-25T07:40:00.074Z,88.60
2017-10-25T07:42:27.568Z,88.70
2017-10-25T07:44:55.078Z,88.70
2017-10-25T07:47:23.353Z,88.90
2017-10-25T07:49:51.624Z,88.80
2017-10-25T07:52:19.889Z,88.80
2017-10-25T07:54:47.464Z,88.80
2017-10-25T07:57:15.735Z,88.70
2017-10-25T07:59:43.992Z,88.90
2017-10-25T08:02:11.487Z,88.80
2017-10-25T08:04:38.982Z,88.70
2017-10-25T08:07:06.475Z,88.90
2017-10-25T08:09:34.053Z,88.90
2017-10-25T08:12:02.300Z,88.90
2017-10-25T08:14:29.781Z,88.90
2017-10-25T08:16:58.045Z,88.60
2017-10-25T08:19:26.300Z,88.40
2017-10-25T08:21:53.790Z,88.30
2017-10-25T08:24:22.041Z,87.70
2017-10-25T08:26:49.857Z,87.60
2017-10-25T08:29:17.407Z,87.40
2017-10-25T08:31:44.901Z,87.10
2017-10-25T08:34:12.441Z,86.60
2017-10-25T08:36:39.941Z,86.10
2017-10-25T08:39:08.236Z,85.20
2017-10-25T08:41:35.757Z,85.10
2017-10-25T08:44:03.252Z,85.40
2017-10-25T08:46:31.553Z,84.20
2017-10-25T08:48:59.041Z,84.20
2017-10-25T08:51:26.545Z,84.50
2017-10-25T08:53:54.856Z,84.90
2017-10-25T08:56:22.350Z,84.80
2017-10-25T08:58:49.841Z,84.30
2017-10-25T09:01:18.101Z,84.00
2017-10-25T09:03:45.582Z,84.00
2017-10-25T09:06:13.845Z,83.80
2017-10-25T09:08:42.120Z,83.80
2017-10-25T09:11:09.618Z,83.80
2017-10-25T09:13:37.192Z,84.00
2017-10-25T09:16:05.525Z,83.70
2017-10-25T09:18:33.781Z,83.70
2017-10-25T09:21:01.277Z,83.60
2017-10-25T09:23:28.786Z,83.80
2017-10-25T09:25:56.282Z,84.40
2017-10-25T09:28:23.764Z,84.00
2017-10-25T09:30:51.270Z,84.20
2017-10-25T09:33:18.758Z,83.20
2017-10-25T09:35:46.254Z,83.10
2017-10-25T09:38:13.748Z,82.60
2017-10-25T09:40:42.067Z,82.80
2017-10-25T09:43:09.566Z,82.80
2017-10-25T09:45:37.062Z,82.50
2017-10-25T09:48:04.540Z,82.00
2017-10-25T09:50:32.040Z,82.60
2017-10-25T09:52:59.532Z,82.10
2017-10-25T09:55:27.030Z,82.00
2017-10-25T09:57:54.521Z,80.70
2017-10-25T10:00:22.017Z,80.90
2017-10-25T10:02:49.517Z,79.40
2017-10-25T10:05:17.122Z,78.10
2017-10-25T10:07:45.522Z,77.50
2017-10-25T10:10:13.022Z,77.50
2017-10-25T10:12:40.617Z,77.30
2017-10-25T10:15:08.880Z,75.90
2017-10-25T10:17:37.124Z,75.20
2017-10-25T10:20:04.605Z,75.10
2017-10-25T10:22:32.106Z,74.40
2017-10-25T10:24:59.599Z,75.40
2017-10-25T10:27:27.096Z,75.30
2017-10-25T10:29:55.352Z,75.60
2017-10-25T10:32:22.840Z,75.60
2017-10-25T10:34:50.973Z,75.20
2017-10-25T10:37:18.468Z,75.10
2017-10-25T10:39:45.957Z,74.70
2017-10-25T10:42:13.500Z,75.30
2017-10-25T10:44:41.049Z,76.00
2017-10-25T10:47:08.561Z,76.10
2017-10-25T10:49:36.045Z,75.40
2017-10-25T10:52:04.328Z,75.40
2017-10-25T10:54:32.578Z,75.70
2017-10-25T10:57:00.176Z,75.60
2017-10-25T10:59:27.720Z,76.00
2017-10-25T11:01:55.982Z,73.80
2017-10-25T11:04:23.467Z,73.80
2017-10-25T11:06:50.964Z,71.30
2017-10-25T11:09:18.444Z,66.90
2017-10-25T11:11:45.940Z,66.30
2017-10-25T11:14:13.420Z,62.90
2017-10-25T11:16:40.907Z,60.80
2017-10-25T11:19:08.396Z,58.20
2017-10-25T11:21:36.661Z,56.00
2017-10-25T11:24:04.145Z,55.90
2017-10-25T11:26:31.636Z,58.80
2017-10-25T11:28:59.122Z,61.80
2017-10-25T11:31:26.621Z,64.90
2017-10-25T11:33:54.103Z,66.90
2017-10-25T11:36:21.588Z,68.70
2017-10-25T11:38:49.104Z,69.50
2017-10-25T11:41:16.684Z,69.90
2017-10-25T11:43:44.161Z,70.60
2017-10-25T11:46:11.652Z,71.40
2017-10-25T11:48:39.909Z,73.10
2017-10-25T11:51:08.175Z,73.40
2017-10-25T11:53:35.680Z,72.70
2017-10-25T11:56:03.194Z,72.60
2017-10-25T11:58:30.686Z,72.60
2017-10-25T12:00:58.176Z,72.60
2017-10-25T12:03:25.670Z,71.40
2017-10-25T12:05:53.176Z,68.00
2017-10-25T12:08:20.670Z,63.10
2017-10-25T12:10:48.270Z,59.00
2017-10-25T12:13:16.519Z,61.20
2017-10-25T12:15:44.021Z,61.20
2017-10-25T12:18:11.513Z,62.90
2017-10-25T12:20:39.013Z,65.20
2017-10-25T12:23:06.529Z,66.60
2017-10-25T12:25:34.031Z,68.40
2017-10-25T12:28:02.319Z,67.70
2017-10-25T12:30:30.577Z,65.30
2017-10-25T12:32:58.867Z,60.60
2017-10-25T12:35:26.395Z,60.40
2017-10-25T12:37:53.885Z,52.50
2017-10-25T12:40:22.152Z,47.40
2017-10-25T12:42:50.418Z,45.00
2017-10-25T12:45:18.694Z,46.10
2017-10-25T12:47:46.270Z,46.10
2017-10-25T12:50:14.536Z,52.30
2017-10-25T12:52:42.805Z,48.70
2017-10-25T12:55:11.071Z,45.00
2017-10-25T12:57:38.649Z,44.90
2017-10-25T13:00:06.928Z,41.50
2017-10-25T13:02:35.233Z,41.50
2017-10-25T13:05:02.756Z,43.10
2017-10-25T13:07:31.012Z,48.90
2017-10-25T13:09:58.597Z,48.90
2017-10-25T13:12:41.971Z,56.10
2017-10-25T13:15:16.355Z,55.90
2017-10-25T13:17:57.353Z,57.70
2017-10-25T13:20:24.885Z,59.40
2017-10-25T13:22:53.144Z,60.70
2017-10-25T13:25:21.412Z,60.20
2017-10-25T13:27:48.905Z,59.90
2017-10-25T13:30:16.402Z,61.30
2017-10-25T13:32:43.909Z,62.30
2017-10-25T13:35:12.236Z,63.30
2017-10-25T13:37:40.497Z,63.70
2017-10-25T13:40:07.993Z,63.60
2017-10-25T13:42:35.495Z,64.00
2017-10-25T13:45:03.007Z,63.70
2017-10-25T13:47:30.504Z,63.40
2017-10-25T13:49:57.996Z,63.10
2017-10-25T13:52:25.497Z,63.50
2017-10-25T13:54:53.754Z,62.50
2017-10-25T13:57:21.297Z,62.40
2017-10-25T13:59:48.790Z,59.40
2017-10-25T14:02:17.819Z,56.30
2017-10-25T14:04:45.308Z,56.10
2017-10-25T14:07:12.811Z,58.10
2017-10-25T14:09:41.059Z,60.80
2017-10-25T14:12:08.566Z,60.80
2017-10-25T14:14:36.052Z,62.10
2017-10-25T14:17:03.551Z,61.70
2017-10-25T14:19:31.872Z,62.70
2017-10-25T14:21:59.389Z,62.70
2017-10-25T14:24:27.642Z,62.50
2017-10-25T14:27:07.137Z,62.50
2017-10-25T14:29:34.618Z,62.80
2017-10-25T14:32:02.113Z,63.40
2017-10-25T14:34:30.364Z,64.00
2017-10-25T14:36:58.032Z,64.10
2017-10-25T14:39:26.329Z,64.80
2017-10-25T14:41:54.605Z,65.00
2017-10-25T14:44:22.849Z,65.30
2017-10-25T14:46:50.346Z,65.30
2017-10-25T14:49:18.594Z,65.00
2017-10-25T14:51:46.093Z,65.00
2017-10-25T14:54:13.623Z,65.00
2017-10-25T14:56:41.881Z,65.20
2017-10-25T14:59:09.391Z,65.00
2017-10-25T15:01:36.889Z,65.10
2017-10-25T15:04:04.373Z,65.50
2017-10-25T15:06:32.641Z,66.40
2017-10-25T15:09:00.149Z,66.20
2017-10-25T15:11:27.713Z,65.50
2017-10-25T15:13:55.202Z,65.50
2017-10-25T15:16:22.722Z,65.40
2017-10-25T15:18:50.218Z,65.00
2017-10-25T15:21:17.718Z,65.20
2017-10-25T15:23:45.221Z,64.70
2017-10-25T15:26:12.715Z,65.10
2017-10-25T15:28:40.965Z,65.60
2017-10-25T15:31:08.461Z,65.40
2017-10-25T15:33:36.761Z,66.10
2017-10-25T15:36:04.259Z,66.00
2017-10-25T15:38:31.750Z,66.20
2017-10-25T15:41:00.008Z,66.10
2017-10-25T15:43:27.547Z,66.00
2017-10-25T15:45:55.053Z,66.20
2017-10-25T15:48:22.540Z,66.40
2017-10-25T15:50:50.037Z,66.40
2017-10-25T15:53:17.527Z,66.40
2017-10-25T15:55:45.021Z,66.60
2017-10-25T15:58:12.548Z,66.60
2017-10-25T16:00:40.036Z,66.90
2017-10-25T16:03:07.540Z,67.10
2017-10-25T16:05:35.802Z,67.20
2017-10-25T16:08:03.295Z,67.20
2017-10-25T16:10:30.786Z,67.60
2017-10-25T16:12:58.322Z,67.40
2017-10-25T16:15:26.741Z,68.40
2017-10-25T16:17:54.229Z,67.60
2017-10-25T16:20:22.489Z,67.80
2017-10-25T16:22:49.968Z,67.80
2017-10-25T16:25:18.232Z,67.90
2017-10-25T16:27:46.497Z,68.20
2017-10-25T16:30:13.990Z,68.20
2017-10-25T16:32:41.477Z,68.20
2017-10-25T16:35:08.970Z,68.40
2017-10-25T16:37:36.464Z,68.40
2017-10-25T16:40:03.949Z,68.60
2017-10-25T16:42:31.447Z,68.70
2017-10-25T16:44:58.929Z,68.90
2017-10-25T16:47:27.184Z,68.40
2017-10-25T16:49:54.664Z,68.30
2017-10-25T16:52:22.169Z,67.60
2017-10-25T16:54:49.665Z,67.00
2017-10-25T16:57:17.963Z,67.20
2017-10-25T16:59:45.448Z,67.10
2017-10-25T17:02:12.957Z,67.20
2017-10-25T17:04:41.232Z,67.20
2017-10-25T17:07:09.542Z,67.40
2017-10-25T17:09:37.064Z,67.40
2017-10-25T17:12:05.350Z,67.50
2017-10-25T17:14:33.637Z,67.80
2017-10-25T17:17:01.150Z,67.80
2017-10-25T17:19:28.654Z,67.30
2017-10-25T17:21:56.149Z,67.60
2017-10-25T17:24:23.653Z,68.20
2017-10-25T17:26:51.932Z,68.30
2017-10-25T17:29:20.187Z,68.50
2017-10-25T17:31:47.690Z,68.40
2017-10-25T17:34:15.191Z,68.50
2017-10-25T17:36:42.709Z,68.40
2017-10-25T17:39:10.227Z,68.60
2017-10-25T17:41:37.741Z,68.60
2017-10-25T17:44:05.670Z,68.20
2017-10-25T17:46:33.188Z,68.20
2017-10-25T17:49:01.522Z,68.40
2017-10-25T17:51:29.142Z,68.40
2017-10-25T17:53:56.634Z,68.10
2017-10-25T17:56:24.139Z,68.10
2017-10-25T17:58:51.633Z,68.10
2017-10-25T18:01:19.895Z,67.90
2017-10-25T18:03:47.412Z,67.90
2017-10-25T18:06:15.248Z,67.80
2017-10-25T18:08:46.981Z,67.90
2017-10-25T18:11:15.136Z,67.60
2017-10-25T18:13:42.658Z,67.70
2017-10-25T18:16:10.149Z,66.90
2017-10-25T18:18:40.828Z,66.90
2017-10-25T18:21:10.545Z,66.60
2017-10-25T18:23:40.657Z,66.50
2017-10-25T18:26:08.193Z,66.50
2017-10-25T18:28:36.748Z,67.00
2017-10-25T18:31:06.530Z,66.40
2017-10-25T18:33:34.038Z,67.20
2017-10-25T18:36:01.560Z,66.80
2017-10-25T18:38:29.143Z,66.60
2017-10-25T18:40:56.658Z,66.60
2017-10-25T18:43:24.156Z,67.10
2017-10-25T18:45:51.632Z,67.90
2017-10-25T18:48:19.137Z,69.20
2017-10-25T18:50:50.923Z,69.80
2017-10-25T18:53:18.416Z,71.70
2017-10-25T18:55:46.695Z,72.90
2017-10-25T18:58:14.956Z,73.60
2017-10-25T19:00:42.473Z,73.60
2017-10-25T19:03:16.382Z,73.60
2017-10-25T19:05:45.429Z,74.10
2017-10-25T19:08:14.745Z,74.60
2017-10-25T19:10:42.249Z,74.40
2017-10-25T19:13:09.767Z,74.50
2017-10-25T19:15:37.244Z,74.70
2017-10-25T19:18:04.733Z,74.70
2017-10-25T19:20:32.240Z,74.70
2017-10-25T19:22:59.739Z,74.70
2017-10-25T19:25:27.717Z,74.20
2017-10-25T19:27:55.253Z,74.20
2017-10-25T19:30:23.563Z,74.10
2017-10-25T19:32:51.058Z,74.10
2017-10-25T19:35:18.565Z,74.10
2017-10-25T19:37:46.856Z,74.30
2017-10-25T19:40:14.342Z,74.50
2017-10-25T19:42:41.873Z,74.60
2017-10-25T19:45:09.378Z,74.60
2017-10-25T19:47:36.875Z,74.70
2017-10-25T19:50:04.403Z,74.80
2017-10-25T19:52:31.913Z,74.90
2017-10-25T19:55:00.185Z,75.00
2017-10-25T19:57:31.409Z,75.20
2017-10-25T19:59:58.891Z,75.00
2017-10-25T20:02:27.201Z,75.70
2017-10-25T20:04:54.733Z,75.20
2017-10-25T20:07:22.253Z,75.30
2017-10-25T20:09:49.752Z,75.50
2017-10-25T20:12:18.029Z,76.00
2017-10-25T20:14:46.295Z,76.40
2017-10-25T20:17:14.583Z,76.60
2017-10-25T20:19:42.862Z,76.70
2017-10-25T20:22:11.121Z,76.60
2017-10-25T20:24:38.629Z,76.60
2017-10-25T20:27:06.140Z,76.90
2017-10-25T20:29:34.923Z,77.10
2017-10-25T20:32:03.253Z,77.10
2017-10-25T20:34:30.801Z,77.00
2017-10-25T20:36:58.295Z,77.10
2017-10-25T20:39:25.812Z,77.10
2017-10-25T20:41:53.356Z,77.10
2017-10-25T20:44:21.616Z,77.10
2017-10-25T20:46:49.975Z,77.10
2017-10-25T20:49:17.631Z,77.10
2017-10-25T20:51:45.146Z,76.80
2017-10-25T20:54:12.653Z,76.90
2017-10-25T20:56:40.162Z,76.80
2017-10-25T20:59:07.656Z,76.90
2017-10-25T21:01:35.205Z,76.80
2017-10-25T21:04:03.049Z,76.70
2017-10-25T21:06:30.540Z,76.70
2017-10-25T21:08:58.097Z,76.80
2017-10-25T21:11:25.625Z,76.80
2017-10-25T21:13:53.117Z,77.10
2017-10-25T21:16:20.675Z,77.10
2017-10-25T21:18:48.240Z,77.10
2017-10-25T21:21:15.732Z,77.30
2017-10-25T21:23:43.998Z,77.20
2017-10-25T21:26:11.528Z,77.20
2017-10-25T21:28:39.018Z,77.20
2017-10-25T21:31:07.283Z,77.60
2017-10-25T21:33:34.822Z,77.50
2017-10-25T21:36:02.322Z,77.70
2017-10-25T21:38:29.818Z,77.70
2017-10-25T21:40:57.341Z,77.90
2017-10-25T21:43:24.840Z,78.10
2017-10-25T21:45:52.354Z,78.20
2017-10-25T21:48:19.893Z,78.40
2017-10-25T21:50:48.161Z,78.70
2017-10-25T21:53:15.732Z,78.70
2017-10-25T21:55:44.009Z,79.10
2017-10-25T21:58:12.293Z,79.40
2017-10-25T22:00:40.580Z,79.60
2017-10-25T22:03:08.129Z,79.60
2017-10-25T22:05:35.750Z,79.30
2017-10-25T22:08:03.257Z,79.80
2017-10-25T22:10:30.776Z,79.80
2017-10-25T22:12:58.295Z,79.80
2017-10-25T22:15:25.787Z,79.60
2017-10-25T22:17:53.316Z,79.80
2017-10-25T22:20:20.822Z,80.10
2017-10-25T22:22:48.323Z,80.00
2017-10-25T22:25:15.845Z,80.10
2017-10-25T22:27:44.112Z,80.40
2017-10-25T22:30:11.606Z,80.40
2017-10-25T22:32:39.130Z,80.40
2017-10-25T22:35:06.630Z,80.30
2017-10-25T22:37:34.177Z,80.30
2017-10-25T22:40:01.710Z,80.80
2017-10-25T22:42:29.995Z,81.60
2017-10-25T22:44:58.256Z,81.30
2017-10-25T22:47:25.799Z,81.10
2017-10-25T22:49:53.298Z,81.30
2017-10-25T22:52:20.793Z,81.70
2017-10-25T22:54:48.317Z,81.90
2017-10-25T22:57:15.815Z,81.90
2017-10-25T22:59:43.321Z,82.00
2017-10-25T23:02:11.600Z,81.80
2017-10-25T23:04:39.841Z,81.30
2017-10-25T23:07:07.329Z,81.30
2017-10-25T23:09:35.630Z,81.30
2017-10-25T23:12:03.159Z,81.30
2017-10-25T23:14:31.411Z,81.10
2017-10-25T23:16:58.915Z,81.10
2017-10-25T23:19:26.407Z,81.10
2017-10-25T23:21:54.337Z,81.00
2017-10-25T23:24:21.852Z,81.00
2017-10-25T23:26:50.119Z,82.30
2017-10-25T23:29:17.628Z,81.50
2017-10-25T23:31:45.141Z,81.90
2017-10-25T23:34:12.627Z,81.90
2017-10-25T23:36:40.885Z,81.80
2017-10-25T23:39:08.405Z,81.80
2017-10-25T23:41:35.895Z,82.00
2017-10-25T23:44:03.382Z,82.80
2017-10-25T23:46:31.648Z,82.30
2017-10-25T23:48:59.940Z,82.80
2017-10-25T23:51:28.193Z,82.50
2017-10-25T23:53:55.707Z,82.40
2017-10-25T23:56:23.199Z,82.00
2017-10-25T23:58:55.034Z,82.40
